createdAt,value
2022-08-22T00:01:21.271Z,8.05
2022-08-22T00:02:47.882Z,5.65
2022-08-22T00:06:32.130Z,6.80
2022-08-22T00:11:44.269Z,7.10
2022-08-22T00:16:53.535Z,7.93
2022-08-22T00:21:58.862Z,7.47
2022-08-22T00:27:04.290Z,6.90
2022-08-22T00:32:11.345Z,7.63
2022-08-22T00:37:19.267Z,6.00
2022-08-22T00:42:36.416Z,7.32
2022-08-22T00:48:02.638Z,6.72
2022-08-22T00:53:28.642Z,7.03
2022-08-22T00:58:58.705Z,6.43
2022-08-22T01:04:23.368Z,5.95
2022-08-22T01:09:36.775Z,6.35
2022-08-22T01:14:44.048Z,6.15
2022-08-22T01:20:20.339Z,5.97
2022-08-22T01:25:59.559Z,6.35
2022-08-22T01:31:34.587Z,6.30
2022-08-22T01:36:58.650Z,6.60
2022-08-22T01:42:24.146Z,6.00
2022-08-22T01:47:27.876Z,5.97
2022-08-22T01:52:40.310Z,5.18
2022-08-22T01:57:53.369Z,6.40
2022-08-22T02:03:05.751Z,6.35
2022-08-22T02:08:20.625Z,6.18
2022-08-22T02:13:34.698Z,7.38
2022-08-22T02:18:46.401Z,7.00
2022-08-22T02:23:56.066Z,6.25
2022-08-22T02:29:01.279Z,6.53
2022-08-22T02:34:03.389Z,5.80
2022-08-22T02:39:13.764Z,7.50
2022-08-22T02:44:20.564Z,6.55
2022-08-22T02:49:27.478Z,6.47
2022-08-22T02:54:37.675Z,6.90
2022-08-22T02:59:39.360Z,5.78
2022-08-22T03:10:01.171Z,6.80
2022-08-22T03:15:07.153Z,6.80
2022-08-22T03:20:14.261Z,7.15
2022-08-22T03:25:27.908Z,6.78
2022-08-22T03:30:35.167Z,8.38
2022-08-22T03:35:40.368Z,6.40
2022-08-22T03:40:53.984Z,6.90
2022-08-22T03:46:19.297Z,7.35
2022-08-22T03:51:33.471Z,6.90
2022-08-22T03:57:00.304Z,7.78
2022-08-22T04:02:42.595Z,8.07
2022-08-22T04:08:04.583Z,8.48
2022-08-22T04:13:33.122Z,7.43
2022-08-22T04:18:57.503Z,8.25
2022-08-22T04:24:26.286Z,8.20
2022-08-22T04:29:33.636Z,7.40
2022-08-22T04:34:40.096Z,6.32
2022-08-22T04:39:47.717Z,7.07
2022-08-22T04:45:11.956Z,7.18
2022-08-22T04:50:19.401Z,7.20
2022-08-22T04:55:30.235Z,6.28
2022-08-22T05:00:40.686Z,6.33
2022-08-22T05:05:42.493Z,6.65
2022-08-22T05:10:43.856Z,6.45
2022-08-22T05:15:49.927Z,7.03
2022-08-22T05:20:51.907Z,8.70
2022-08-22T05:25:56.755Z,6.60
2022-08-22T05:30:58.007Z,7.07
2022-08-22T05:36:01.408Z,7.18
2022-08-22T05:41:05.990Z,6.40
2022-08-22T05:46:10.490Z,7.53
2022-08-22T05:51:18.854Z,6.45
2022-08-22T05:56:27.408Z,6.57
2022-08-22T06:01:33.881Z,6.93
2022-08-22T06:06:39.335Z,5.80
2022-08-22T06:11:51.578Z,6.20
2022-08-22T06:17:00.075Z,6.30
2022-08-22T06:21:59.305Z,6.28
2022-08-22T06:27:05.382Z,5.90
2022-08-22T06:32:13.539Z,5.88
2022-08-22T06:37:19.547Z,6.60
2022-08-22T06:42:22.900Z,6.45
2022-08-22T06:47:28.112Z,6.97
2022-08-22T06:52:29.724Z,5.88
2022-08-22T07:02:40.257Z,6.88
2022-08-22T07:07:42.762Z,7.10
2022-08-22T07:12:46.519Z,6.70
2022-08-22T07:17:53.826Z,6.55
2022-08-22T07:22:56.031Z,5.93
2022-08-22T07:28:15.930Z,5.80
2022-08-22T07:33:29.049Z,5.70
2022-08-22T07:38:42.710Z,5.30
2022-08-22T07:43:46.428Z,6.00
2022-08-22T07:49:08.224Z,4.93
2022-08-22T07:54:11.024Z,6.60
2022-08-22T07:59:14.519Z,5.25
2022-08-22T08:04:24.822Z,5.20
2022-08-22T08:09:29.116Z,5.77
2022-08-22T08:14:28.645Z,4.97
2022-08-22T08:19:39.782Z,5.70
2022-08-22T08:24:43.220Z,4.13
2022-08-22T08:29:54.695Z,4.43
2022-08-22T08:34:55.577Z,4.80
2022-08-22T08:45:19.559Z,4.82
2022-08-22T08:50:46.171Z,4.45
2022-08-22T08:55:54.958Z,4.70
2022-08-22T09:01:02.571Z,4.00
2022-08-22T09:06:19.059Z,5.25
2022-08-22T09:11:51.434Z,4.63
2022-08-22T09:17:11.211Z,4.28
2022-08-22T09:22:33.384Z,4.72
2022-08-22T09:27:58.326Z,5.18
2022-08-22T09:33:04.086Z,4.13
2022-08-22T09:38:24.592Z,4.70
2022-08-22T09:43:33.779Z,4.05
2022-08-22T09:48:51.962Z,5.15
2022-08-22T09:54:35.044Z,4.25
2022-08-22T09:59:51.408Z,4.93
2022-08-22T10:05:06.437Z,3.95
2022-08-22T10:10:26.239Z,4.13
2022-08-22T10:15:37.643Z,3.75
2022-08-22T10:20:51.698Z,3.60
2022-08-22T10:26:05.530Z,3.40
2022-08-22T10:31:20.889Z,5.55
2022-08-22T10:36:37.939Z,3.60
2022-08-22T10:41:45.390Z,3.53
2022-08-22T10:46:52.365Z,3.72
2022-08-22T10:52:15.605Z,4.20
2022-08-22T10:57:53.048Z,10.77
2022-08-22T11:03:00.967Z,5.50
2022-08-22T11:08:25.558Z,3.70
2022-08-22T11:13:36.955Z,5.18
2022-08-22T11:19:04.908Z,6.10
2022-08-22T11:24:46.542Z,6.65
2022-08-22T11:30:05.623Z,7.05
2022-08-22T11:35:09.292Z,4.63
2022-08-22T11:40:34.372Z,5.43
2022-08-22T11:45:41.030Z,4.18
2022-08-22T11:50:47.207Z,3.33
2022-08-22T11:56:00.250Z,4.40
2022-08-22T12:01:17.534Z,3.42
2022-08-22T12:06:42.327Z,4.03
2022-08-22T12:11:50.123Z,3.17
2022-08-22T12:17:11.398Z,3.20
2022-08-22T12:22:53.161Z,3.42
2022-08-22T12:28:12.987Z,3.22
2022-08-22T12:33:30.101Z,3.30
2022-08-22T12:38:52.351Z,3.40
2022-08-22T12:44:01.610Z,3.40
2022-08-22T12:49:18.124Z,3.22
2022-08-22T12:54:44.679Z,3.40
2022-08-22T12:59:47.277Z,4.00
2022-08-22T13:04:55.757Z,3.45
2022-08-22T13:10:00.918Z,3.30
2022-08-22T13:15:10.896Z,3.40
2022-08-22T13:25:25.897Z,2.95
2022-08-22T13:35:36.414Z,3.50
2022-08-22T13:40:48.120Z,3.10
2022-08-22T13:45:55.131Z,3.15
2022-08-22T13:51:05.897Z,3.08
2022-08-22T13:56:15.352Z,4.15
2022-08-22T14:01:32.830Z,4.80
2022-08-22T14:06:41.449Z,4.07
2022-08-22T14:11:48.962Z,3.25
2022-08-22T14:16:50.873Z,3.58
2022-08-22T14:21:55.911Z,3.13
2022-08-22T14:27:05.262Z,4.43
2022-08-22T14:32:13.613Z,2.78
2022-08-22T14:37:23.150Z,4.15
2022-08-22T14:42:26.554Z,3.55
2022-08-22T14:47:55.553Z,3.47
2022-08-22T14:53:09.624Z,3.33
2022-08-22T14:58:17.695Z,3.80
2022-08-22T15:03:40.851Z,4.45
2022-08-22T15:09:00.367Z,3.38
2022-08-22T15:14:25.696Z,4.15
2022-08-22T15:19:32.871Z,3.45
2022-08-22T15:24:34.638Z,3.70
2022-08-22T15:29:46.499Z,3.80
2022-08-22T15:34:52.335Z,3.30
2022-08-22T15:40:29.473Z,3.75
2022-08-22T15:45:34.047Z,3.47
2022-08-22T15:50:38.510Z,3.50
2022-08-22T15:55:45.710Z,3.30
2022-08-22T16:00:47.244Z,3.75
2022-08-22T16:05:55.457Z,3.22
2022-08-22T16:11:18.236Z,6.72
2022-08-22T16:16:51.485Z,4.90
2022-08-22T16:22:22.270Z,7.00
2022-08-22T16:27:27.425Z,4.75
2022-08-22T16:32:29.789Z,7.43
2022-08-22T16:37:51.865Z,7.45
2022-08-22T16:43:17.072Z,5.78
2022-08-22T16:48:25.018Z,4.88
2022-08-22T16:53:57.403Z,5.07
2022-08-22T16:59:23.349Z,4.63
2022-08-22T17:04:29.282Z,5.07
2022-08-22T17:09:58.772Z,5.30
2022-08-22T17:15:09.330Z,4.93
2022-08-22T17:20:23.251Z,5.80
2022-08-22T17:25:31.546Z,5.90
2022-08-22T17:30:41.406Z,5.60
2022-08-22T17:35:51.754Z,5.47
2022-08-22T17:41:02.944Z,6.95
2022-08-22T17:46:23.459Z,7.85
2022-08-22T17:51:40.264Z,9.23
2022-08-22T17:56:46.345Z,8.38
2022-08-22T18:01:51.305Z,4.43
2022-08-22T18:06:57.822Z,3.85
2022-08-22T18:12:03.488Z,4.35
2022-08-22T18:17:18.442Z,4.38
2022-08-22T18:22:24.617Z,3.65
2022-08-22T18:27:35.374Z,4.53
2022-08-22T18:32:44.073Z,3.55
2022-08-22T18:37:55.367Z,3.22
2022-08-22T18:43:08.778Z,5.05
2022-08-22T18:48:09.343Z,3.97
2022-08-22T18:53:40.467Z,3.92
2022-08-22T18:59:06.073Z,3.60
2022-08-22T19:04:31.787Z,4.85
2022-08-22T19:10:10.054Z,3.97
2022-08-22T19:15:27.811Z,3.85
2022-08-22T19:20:49.088Z,3.58
2022-08-22T19:31:24.056Z,3.75
2022-08-22T19:36:41.489Z,3.00
2022-08-22T19:42:31.685Z,3.67
2022-08-22T19:48:54.613Z,2.15
2022-08-22T19:54:28.532Z,3.15
2022-08-22T20:00:02.334Z,2.80
2022-08-22T20:05:44.535Z,3.00
2022-08-22T20:11:13.558Z,3.45
2022-08-22T20:17:04.505Z,2.85
2022-08-22T20:22:16.697Z,2.50
2022-08-22T20:27:54.040Z,2.67
2022-08-22T20:32:58.233Z,2.78
2022-08-22T20:38:06.726Z,3.63
2022-08-22T20:43:14.020Z,2.80
2022-08-22T20:48:17.970Z,3.60
2022-08-22T20:53:21.380Z,3.05
2022-08-22T20:58:25.666Z,3.60
2022-08-22T21:03:50.746Z,3.53
2022-08-22T21:09:11.225Z,3.17
2022-08-22T21:14:22.780Z,3.05
2022-08-22T21:19:26.521Z,2.92
2022-08-22T21:24:25.490Z,4.57
2022-08-22T21:29:32.385Z,3.15
2022-08-22T21:34:37.764Z,3.83
2022-08-22T21:39:43.474Z,2.70
2022-08-22T21:44:55.325Z,3.45
2022-08-22T21:50:03.987Z,3.33
2022-08-22T21:55:26.866Z,2.95
2022-08-22T22:00:49.799Z,3.17
2022-08-22T22:05:51.323Z,3.00
2022-08-22T22:15:53.234Z,3.17
2022-08-22T22:20:54.400Z,3.30
2022-08-22T22:25:55.809Z,2.80
2022-08-22T22:35:57.052Z,3.72
2022-08-22T22:40:56.063Z,3.70
2022-08-22T22:45:56.571Z,4.57
2022-08-22T22:50:55.611Z,3.92
2022-08-22T22:56:00.238Z,4.45
2022-08-22T23:01:09.050Z,3.80
2022-08-22T23:06:12.923Z,3.85
2022-08-22T23:11:12.529Z,4.00
2022-08-22T23:16:17.067Z,4.93
2022-08-22T23:21:17.983Z,4.10
2022-08-22T23:26:17.539Z,4.20
2022-08-22T23:31:21.002Z,3.85
2022-08-22T23:36:22.365Z,3.70
2022-08-22T23:41:22.122Z,3.40
2022-08-22T23:46:25.398Z,4.38
2022-08-22T23:51:26.180Z,3.97
2022-08-22T23:56:30.395Z,4.33
